JBU1704 SKRG-TJSJ
Flight info
| Callsign | JBU1704 |
|---|---|
| Flight time | 2h 8m |
| Altitude | 34000 |
| Route | BIVIG1B BIVIG DCT SERVO UW3 MGN/N0462F350 DCT UBLAX UG444 SELAN UM525 VESKA UL221 DUMBI DCT ALTEL UL221 SATOE L221 JOSHE JOSHE3 |
| Aircraft | A320/M-SDE3FGHIRWY/LB1 |
Departure
| Time | 2026-04-25 01:03 |
|---|---|
| Airport | Jose Maria Córdova International Airport (SKRG) |
Arrival
| Time | 2026-04-25 03:11 |
|---|---|
| Airport | Luis Munoz Marin International Airport (TJSJ) |
| Time | Latitude | Longitude | Altitude | Speed | Heading |
|---|---|---|---|---|---|
| 2026-04-25 00:19 | 6.17297 | -75.42773 | 6989 ft | 0 kts | 213° |
| 2026-04-25 00:45 | 6.17311 | -75.42764 | 7021 ft | 3 kts | 213° |
| 2026-04-25 00:45 | 6.17326 | -75.42755 | 7020 ft | 3 kts | 213° |
| 2026-04-25 00:46 | 6.17342 | -75.42746 | 7021 ft | 3 kts | 184° |
| 2026-04-25 00:46 | 6.17360 | -75.42747 | 7019 ft | 3 kts | 157° |
| 2026-04-25 00:46 | 6.17383 | -75.42773 | 7020 ft | 3 kts | 106° |
| 2026-04-25 00:47 | 6.17385 | -75.42783 | 7020 ft | 0 kts | 106° |
| 2026-04-25 00:52 | 6.17384 | -75.42778 | 7020 ft | 3 kts | 107° |
| 2026-04-25 00:52 | 6.17372 | -75.42748 | 7019 ft | 6 kts | 116° |
| 2026-04-25 00:52 | 6.17346 | -75.42707 | 7017 ft | 8 kts | 124° |
| 2026-04-25 00:52 | 6.17315 | -75.42662 | 7019 ft | 8 kts | 126° |
| 2026-04-25 00:53 | 6.17271 | -75.42622 | 7021 ft | 9 kts | 162° |
| 2026-04-25 00:53 | 6.17208 | -75.42619 | 7016 ft | 10 kts | 179° |
| 2026-04-25 00:53 | 6.17129 | -75.42615 | 7016 ft | 12 kts | 178° |
| 2026-04-25 00:53 | 6.17047 | -75.42592 | 7019 ft | 13 kts | 147° |
| 2026-04-25 00:54 | 6.16969 | -75.42545 | 7020 ft | 14 kts | 149° |
| 2026-04-25 00:54 | 6.16877 | -75.42493 | 7017 ft | 16 kts | 154° |
| 2026-04-25 00:54 | 6.16764 | -75.42485 | 7013 ft | 17 kts | 180° |
| 2026-04-25 00:54 | 6.16634 | -75.42484 | 7001 ft | 20 kts | 180° |
| 2026-04-25 00:55 | 6.16483 | -75.42483 | 7001 ft | 23 kts | 180° |
| 2026-04-25 00:55 | 6.16311 | -75.42482 | 6987 ft | 26 kts | 179° |
| 2026-04-25 00:55 | 6.16129 | -75.42481 | 6988 ft | 21 kts | 180° |
| 2026-04-25 00:55 | 6.15981 | -75.42480 | 6982 ft | 22 kts | 180° |
| 2026-04-25 00:56 | 6.15826 | -75.42479 | 6983 ft | 23 kts | 180° |
| 2026-04-25 00:56 | 6.15666 | -75.42478 | 6979 ft | 23 kts | 179° |
| 2026-04-25 00:56 | 6.15503 | -75.42477 | 6980 ft | 24 kts | 179° |
| 2026-04-25 00:56 | 6.15353 | -75.42476 | 6976 ft | 15 kts | 179° |
| 2026-04-25 00:57 | 6.15248 | -75.42475 | 6978 ft | 16 kts | 180° |
| 2026-04-25 00:57 | 6.15138 | -75.42475 | 6978 ft | 16 kts | 179° |
| 2026-04-25 00:57 | 6.15026 | -75.42474 | 6976 ft | 16 kts | 180° |
| 2026-04-25 00:57 | 6.14936 | -75.42473 | 6977 ft | 9 kts | 175° |
| 2026-04-25 00:58 | 6.14907 | -75.42455 | 6974 ft | 4 kts | 129° |
| 2026-04-25 00:58 | 6.14906 | -75.42454 | 6974 ft | 0 kts | 126° |
| 2026-04-25 00:58 | 6.14906 | -75.42453 | 6974 ft | 0 kts | 126° |
| 2026-04-25 00:59 | 6.14905 | -75.42452 | 6974 ft | 0 kts | 126° |
| 2026-04-25 01:01 | 6.14901 | -75.42426 | 6977 ft | 8 kts | 94° |
| 2026-04-25 01:01 | 6.14906 | -75.42360 | 6977 ft | 10 kts | 70° |
| 2026-04-25 01:01 | 6.14960 | -75.42316 | 6977 ft | 10 kts | 30° |
| 2026-04-25 01:02 | 6.15015 | -75.42304 | 6978 ft | 0 kts | 359° |
| 2026-04-25 01:02 | 6.15115 | -75.42305 | 6979 ft | 45 kts | 359° |
| 2026-04-25 01:02 | 6.15683 | -75.42308 | 6982 ft | 114 kts | 360° |
| 2026-04-25 01:03 | 6.16663 | -75.42314 | 7001 ft | 164 kts | 360° |
| 2026-04-25 01:03 | 6.17911 | -75.42323 | 7363 ft | 184 kts | 359° |
| 2026-04-25 01:03 | 6.19224 | -75.42330 | 8026 ft | 196 kts | 359° |
| 2026-04-25 01:03 | 6.20644 | -75.42319 | 8547 ft | 210 kts | 4° |
| 2026-04-25 01:04 | 6.21978 | -75.41725 | 8901 ft | 218 kts | 46° |
| 2026-04-25 01:04 | 6.22574 | -75.40345 | 9326 ft | 221 kts | 86° |
| 2026-04-25 01:04 | 6.22612 | -75.38798 | 9769 ft | 223 kts | 81° |
| 2026-04-25 01:04 | 6.22952 | -75.37272 | 10220 ft | 225 kts | 71° |
| 2026-04-25 01:05 | 6.23546 | -75.35799 | 10581 ft | 233 kts | 64° |
| 2026-04-25 01:05 | 6.24296 | -75.34278 | 10701 ft | 252 kts | 62° |
| 2026-04-25 01:05 | 6.25142 | -75.32644 | 10855 ft | 274 kts | 62° |
| 2026-04-25 01:05 | 6.26053 | -75.30883 | 11116 ft | 294 kts | 62° |
| 2026-04-25 01:06 | 6.27015 | -75.28993 | 11371 ft | 313 kts | 63° |
| 2026-04-25 01:06 | 6.28020 | -75.26983 | 11629 ft | 330 kts | 63° |
| 2026-04-25 01:06 | 6.29329 | -75.25051 | 11888 ft | 340 kts | 41° |
| 2026-04-25 01:06 | 6.31366 | -75.23875 | 12142 ft | 341 kts | 15° |
| 2026-04-25 01:07 | 6.33709 | -75.23521 | 12412 ft | 342 kts | 0° |
| 2026-04-25 01:07 | 6.36090 | -75.23618 | 12672 ft | 343 kts | 353° |
| 2026-04-25 01:07 | 6.38465 | -75.23874 | 12952 ft | 345 kts | 352° |
| 2026-04-25 01:07 | 6.40889 | -75.24131 | 13234 ft | 359 kts | 354° |
| 2026-04-25 01:08 | 6.43423 | -75.24318 | 13534 ft | 370 kts | 356° |
| 2026-04-25 01:08 | 6.46010 | -75.24411 | 14043 ft | 374 kts | 359° |
| 2026-04-25 01:08 | 6.48627 | -75.24336 | 14537 ft | 378 kts | 2° |
| 2026-04-25 01:08 | 6.51258 | -75.24119 | 15042 ft | 381 kts | 5° |
| 2026-04-25 01:09 | 6.53902 | -75.23830 | 15539 ft | 384 kts | 5° |
| 2026-04-25 01:09 | 6.56565 | -75.23525 | 16028 ft | 386 kts | 5° |
| 2026-04-25 01:09 | 6.59247 | -75.23234 | 16516 ft | 389 kts | 5° |
| 2026-04-25 01:09 | 6.61918 | -75.22966 | 16994 ft | 392 kts | 4° |
| 2026-04-25 01:10 | 6.64643 | -75.22717 | 17465 ft | 395 kts | 4° |
| 2026-04-25 01:10 | 6.67394 | -75.22481 | 17937 ft | 398 kts | 4° |
| 2026-04-25 01:10 | 6.70161 | -75.22251 | 18407 ft | 401 kts | 4° |
| 2026-04-25 01:10 | 6.72951 | -75.22022 | 18810 ft | 404 kts | 4° |
| 2026-04-25 01:11 | 6.75761 | -75.21789 | 19216 ft | 406 kts | 4° |
| 2026-04-25 01:11 | 6.78583 | -75.21550 | 19623 ft | 409 kts | 4° |
| 2026-04-25 01:11 | 6.81424 | -75.21307 | 20034 ft | 411 kts | 4° |
| 2026-04-25 01:11 | 6.84284 | -75.21057 | 20439 ft | 414 kts | 4° |
| 2026-04-25 01:12 | 6.87157 | -75.20800 | 20815 ft | 416 kts | 4° |
| 2026-04-25 01:12 | 6.90056 | -75.20542 | 21204 ft | 419 kts | 4° |
| 2026-04-25 01:12 | 6.92965 | -75.20286 | 21578 ft | 421 kts | 4° |
| 2026-04-25 01:12 | 6.95893 | -75.20033 | 21968 ft | 424 kts | 4° |
| 2026-04-25 01:13 | 6.98840 | -75.19777 | 22324 ft | 426 kts | 4° |
| 2026-04-25 01:13 | 7.00797 | -75.19606 | 22557 ft | 428 kts | 4° |
| 2026-04-25 01:13 | 7.03765 | -75.19317 | 22905 ft | 430 kts | 6° |
| 2026-04-25 01:13 | 7.06744 | -75.18928 | 23239 ft | 433 kts | 7° |
| 2026-04-25 01:14 | 7.09729 | -75.18464 | 23564 ft | 435 kts | 8° |
| 2026-04-25 01:14 | 7.12726 | -75.17963 | 23862 ft | 438 kts | 9° |
| 2026-04-25 01:14 | 7.15736 | -75.17456 | 24115 ft | 440 kts | 8° |
| 2026-04-25 01:14 | 7.18769 | -75.16965 | 24378 ft | 442 kts | 8° |
| 2026-04-25 01:15 | 7.21816 | -75.16496 | 24651 ft | 445 kts | 8° |
| 2026-04-25 01:15 | 7.24886 | -75.16037 | 24916 ft | 447 kts | 8° |
| 2026-04-25 01:15 | 7.27973 | -75.15581 | 25175 ft | 449 kts | 8° |
| 2026-04-25 01:15 | 7.31071 | -75.15119 | 25444 ft | 451 kts | 8° |
| 2026-04-25 01:16 | 7.34186 | -75.14651 | 25704 ft | 454 kts | 8° |
| 2026-04-25 01:16 | 7.37315 | -75.14179 | 25966 ft | 456 kts | 8° |
| 2026-04-25 01:16 | 7.40460 | -75.13703 | 26228 ft | 458 kts | 8° |
| 2026-04-25 01:16 | 7.43618 | -75.13222 | 26483 ft | 460 kts | 8° |
| 2026-04-25 01:17 | 7.46791 | -75.12740 | 26739 ft | 462 kts | 8° |
| 2026-04-25 01:17 | 7.49980 | -75.12257 | 26982 ft | 464 kts | 8° |
| 2026-04-25 01:17 | 7.53181 | -75.11768 | 27254 ft | 467 kts | 8° |
| 2026-04-25 01:17 | 7.56398 | -75.11273 | 27505 ft | 469 kts | 8° |
| 2026-04-25 01:18 | 7.59630 | -75.10776 | 27765 ft | 471 kts | 8° |
| 2026-04-25 01:18 | 7.62873 | -75.10276 | 28014 ft | 473 kts | 8° |
| 2026-04-25 01:18 | 7.66134 | -75.09776 | 28274 ft | 475 kts | 8° |
| 2026-04-25 01:18 | 7.69409 | -75.09279 | 28607 ft | 475 kts | 8° |
| 2026-04-25 01:19 | 7.72655 | -75.08682 | 28983 ft | 474 kts | 15° |
| 2026-04-25 01:19 | 7.75839 | -75.07816 | 29356 ft | 474 kts | 15° |
| 2026-04-25 01:19 | 7.78981 | -75.06946 | 29733 ft | 474 kts | 15° |
| 2026-04-25 01:19 | 7.82155 | -75.06058 | 30113 ft | 474 kts | 16° |
| 2026-04-25 01:20 | 7.85332 | -75.05164 | 30439 ft | 474 kts | 16° |
| 2026-04-25 01:20 | 7.88548 | -75.04259 | 30770 ft | 474 kts | 16° |
| 2026-04-25 01:20 | 7.91722 | -75.03369 | 31097 ft | 474 kts | 16° |
| 2026-04-25 01:20 | 7.94898 | -75.02480 | 31410 ft | 474 kts | 16° |
| 2026-04-25 01:21 | 7.98075 | -75.01593 | 31744 ft | 474 kts | 16° |
| 2026-04-25 01:21 | 8.01212 | -75.00716 | 32070 ft | 474 kts | 16° |
| 2026-04-25 01:21 | 8.04433 | -74.99816 | 32411 ft | 474 kts | 16° |
| 2026-04-25 01:21 | 8.07613 | -74.98927 | 32759 ft | 474 kts | 16° |
| 2026-04-25 01:22 | 8.10790 | -74.98036 | 33103 ft | 474 kts | 16° |
| 2026-04-25 01:22 | 8.13970 | -74.97145 | 33444 ft | 474 kts | 16° |
| 2026-04-25 01:22 | 8.17150 | -74.96256 | 33805 ft | 474 kts | 16° |
| 2026-04-25 01:22 | 8.20338 | -74.95366 | 33948 ft | 477 kts | 16° |
| 2026-04-25 01:23 | 8.23557 | -74.94466 | 33969 ft | 482 kts | 16° |
| 2026-04-25 01:23 | 8.30010 | -74.92656 | 33960 ft | 485 kts | 16° |
| 2026-04-25 01:24 | 8.36565 | -74.90822 | 33959 ft | 486 kts | 16° |
| 2026-04-25 01:24 | 8.43033 | -74.89013 | 33952 ft | 486 kts | 16° |
| 2026-04-25 01:25 | 8.49559 | -74.87183 | 33950 ft | 487 kts | 16° |
| 2026-04-25 01:25 | 8.56089 | -74.85351 | 33946 ft | 487 kts | 16° |
| 2026-04-25 01:26 | 8.62618 | -74.83515 | 33941 ft | 487 kts | 16° |
| 2026-04-25 01:26 | 8.69155 | -74.81681 | 33938 ft | 488 kts | 16° |
| 2026-04-25 01:27 | 8.75698 | -74.79839 | 33937 ft | 488 kts | 16° |
| 2026-04-25 01:27 | 8.82245 | -74.77997 | 33932 ft | 488 kts | 16° |
| 2026-04-25 01:28 | 8.92074 | -74.75242 | 33928 ft | 489 kts | 16° |
| 2026-04-25 01:28 | 8.98637 | -74.73396 | 33930 ft | 489 kts | 16° |
| 2026-04-25 01:29 | 9.05201 | -74.71552 | 33927 ft | 490 kts | 16° |
| 2026-04-25 01:29 | 9.11726 | -74.69719 | 33931 ft | 490 kts | 16° |
| 2026-04-25 01:30 | 9.18298 | -74.67868 | 33936 ft | 491 kts | 16° |
| 2026-04-25 01:30 | 9.24877 | -74.66011 | 33936 ft | 491 kts | 16° |
| 2026-04-25 01:31 | 9.31459 | -74.64154 | 33940 ft | 491 kts | 16° |
| 2026-04-25 01:31 | 9.38045 | -74.62301 | 33945 ft | 491 kts | 15° |
| 2026-04-25 01:32 | 9.44629 | -74.60443 | 33944 ft | 491 kts | 16° |
| 2026-04-25 01:32 | 9.51207 | -74.58581 | 33954 ft | 491 kts | 15° |
| 2026-04-25 01:33 | 9.57787 | -74.56728 | 33956 ft | 491 kts | 15° |
| 2026-04-25 01:33 | 9.64363 | -74.54877 | 33956 ft | 490 kts | 15° |
| 2026-04-25 01:34 | 9.70937 | -74.53021 | 33958 ft | 490 kts | 15° |
| 2026-04-25 01:34 | 9.77508 | -74.51164 | 33957 ft | 490 kts | 15° |
| 2026-04-25 01:35 | 9.84074 | -74.49307 | 33962 ft | 490 kts | 15° |
| 2026-04-25 01:35 | 9.90641 | -74.47449 | 33958 ft | 490 kts | 15° |
| 2026-04-25 01:36 | 9.97210 | -74.45593 | 33959 ft | 490 kts | 15° |
| 2026-04-25 01:36 | 10.03781 | -74.43736 | 33956 ft | 490 kts | 15° |
| 2026-04-25 01:37 | 10.10307 | -74.41891 | 33959 ft | 490 kts | 15° |
| 2026-04-25 01:37 | 10.16884 | -74.40031 | 33955 ft | 491 kts | 15° |
| 2026-04-25 01:38 | 10.23461 | -74.38173 | 33950 ft | 491 kts | 15° |
| 2026-04-25 01:38 | 10.30044 | -74.36297 | 33954 ft | 491 kts | 15° |
| 2026-04-25 01:39 | 10.36621 | -74.34409 | 33956 ft | 492 kts | 15° |
| 2026-04-25 01:39 | 10.43215 | -74.32533 | 33957 ft | 492 kts | 15° |
| 2026-04-25 01:40 | 10.49810 | -74.30668 | 33957 ft | 492 kts | 15° |
| 2026-04-25 01:40 | 10.56412 | -74.28794 | 33959 ft | 493 kts | 15° |
| 2026-04-25 01:41 | 10.63020 | -74.26930 | 33963 ft | 493 kts | 15° |
| 2026-04-25 01:41 | 10.69634 | -74.25064 | 33970 ft | 493 kts | 15° |
| 2026-04-25 01:42 | 10.76244 | -74.23188 | 33979 ft | 493 kts | 15° |
| 2026-04-25 01:42 | 10.82849 | -74.21308 | 33973 ft | 493 kts | 15° |
| 2026-04-25 01:43 | 10.89456 | -74.19421 | 33965 ft | 493 kts | 15° |
| 2026-04-25 01:43 | 10.96066 | -74.17535 | 33955 ft | 493 kts | 15° |
| 2026-04-25 01:44 | 11.02675 | -74.15654 | 33945 ft | 493 kts | 14° |
| 2026-04-25 01:44 | 11.09287 | -74.13771 | 33936 ft | 493 kts | 14° |
| 2026-04-25 01:45 | 11.15901 | -74.11890 | 33941 ft | 493 kts | 14° |
| 2026-04-25 01:45 | 11.22513 | -74.10004 | 33949 ft | 494 kts | 14° |
| 2026-04-25 01:46 | 11.29127 | -74.08112 | 33955 ft | 494 kts | 14° |
| 2026-04-25 01:46 | 11.35750 | -74.06219 | 33965 ft | 494 kts | 14° |
| 2026-04-25 01:47 | 11.42371 | -74.04318 | 33967 ft | 494 kts | 14° |
| 2026-04-25 01:47 | 11.48993 | -74.02419 | 33965 ft | 494 kts | 14° |
| 2026-04-25 01:48 | 11.55574 | -74.00532 | 33959 ft | 495 kts | 14° |
| 2026-04-25 01:48 | 11.62199 | -73.98637 | 33954 ft | 495 kts | 14° |
| 2026-04-25 01:49 | 11.68829 | -73.96742 | 33958 ft | 495 kts | 14° |
| 2026-04-25 01:49 | 11.75462 | -73.94843 | 33961 ft | 495 kts | 14° |
| 2026-04-25 01:50 | 11.82097 | -73.92951 | 33956 ft | 495 kts | 14° |
| 2026-04-25 01:50 | 11.88732 | -73.91052 | 33960 ft | 495 kts | 14° |
| 2026-04-25 01:51 | 11.95366 | -73.89144 | 33962 ft | 495 kts | 14° |
| 2026-04-25 01:51 | 12.02003 | -73.87236 | 33956 ft | 495 kts | 14° |
| 2026-04-25 01:52 | 12.08643 | -73.85346 | 33959 ft | 495 kts | 14° |
| 2026-04-25 01:52 | 12.15281 | -73.83448 | 33962 ft | 495 kts | 14° |
| 2026-04-25 01:53 | 12.21918 | -73.81536 | 33960 ft | 495 kts | 14° |
| 2026-04-25 01:53 | 12.28551 | -73.79627 | 33961 ft | 495 kts | 14° |
| 2026-04-25 01:54 | 12.35187 | -73.77716 | 33962 ft | 495 kts | 14° |
| 2026-04-25 01:54 | 12.41824 | -73.75805 | 33958 ft | 495 kts | 14° |
| 2026-04-25 01:55 | 12.48464 | -73.73901 | 33957 ft | 496 kts | 14° |
| 2026-04-25 01:55 | 12.55105 | -73.71983 | 33960 ft | 496 kts | 14° |
| 2026-04-25 01:56 | 12.61702 | -73.70078 | 33959 ft | 496 kts | 14° |
| 2026-04-25 01:56 | 12.68343 | -73.68159 | 33959 ft | 496 kts | 14° |
| 2026-04-25 01:57 | 12.78314 | -73.65273 | 33954 ft | 497 kts | 14° |
| 2026-04-25 01:58 | 12.84966 | -73.63343 | 33955 ft | 497 kts | 14° |
| 2026-04-25 01:58 | 12.91618 | -73.61417 | 33956 ft | 497 kts | 14° |
| 2026-04-25 01:59 | 12.98277 | -73.59498 | 33959 ft | 497 kts | 13° |
| 2026-04-25 01:59 | 13.04939 | -73.57581 | 33963 ft | 497 kts | 13° |
| 2026-04-25 02:00 | 13.11601 | -73.55649 | 33963 ft | 498 kts | 14° |
| 2026-04-25 02:00 | 13.18259 | -73.53711 | 33959 ft | 498 kts | 13° |
| 2026-04-25 02:01 | 13.24927 | -73.51779 | 33959 ft | 498 kts | 13° |
| 2026-04-25 02:01 | 13.31592 | -73.49851 | 33962 ft | 498 kts | 13° |
| 2026-04-25 02:02 | 13.38258 | -73.47915 | 33968 ft | 498 kts | 13° |
| 2026-04-25 02:02 | 13.43800 | -73.46305 | 33967 ft | 498 kts | 13° |
| 2026-04-25 02:03 | 13.50466 | -73.44367 | 33961 ft | 498 kts | 13° |
| 2026-04-25 02:03 | 13.57134 | -73.42438 | 33964 ft | 498 kts | 13° |
| 2026-04-25 02:04 | 13.63803 | -73.40502 | 33965 ft | 498 kts | 13° |
| 2026-04-25 02:04 | 13.70469 | -73.38558 | 33975 ft | 498 kts | 13° |
| 2026-04-25 02:05 | 13.77141 | -73.36611 | 33968 ft | 498 kts | 13° |
| 2026-04-25 02:05 | 13.83790 | -73.34591 | 33967 ft | 500 kts | 18° |
| 2026-04-25 02:06 | 13.89839 | -73.31035 | 33972 ft | 505 kts | 38° |
| 2026-04-25 02:06 | 13.94672 | -73.25787 | 33953 ft | 507 kts | 49° |
| 2026-04-25 02:07 | 13.99251 | -73.20260 | 33956 ft | 508 kts | 49° |
| 2026-04-25 02:07 | 14.03811 | -73.14771 | 33954 ft | 508 kts | 49° |
| 2026-04-25 02:08 | 14.08403 | -73.09243 | 33958 ft | 508 kts | 49° |
| 2026-04-25 02:08 | 14.12989 | -73.03690 | 33958 ft | 509 kts | 49° |
| 2026-04-25 02:09 | 14.17587 | -72.98137 | 33958 ft | 510 kts | 49° |
| 2026-04-25 02:09 | 14.22187 | -72.92572 | 33961 ft | 510 kts | 49° |
| 2026-04-25 02:10 | 14.26785 | -72.87000 | 33979 ft | 511 kts | 49° |
| 2026-04-25 02:10 | 14.31389 | -72.81419 | 33965 ft | 511 kts | 49° |
| 2026-04-25 02:11 | 14.35986 | -72.75826 | 33969 ft | 511 kts | 49° |
| 2026-04-25 02:11 | 14.40591 | -72.70233 | 33967 ft | 511 kts | 49° |
| 2026-04-25 02:12 | 14.45230 | -72.64673 | 33964 ft | 511 kts | 49° |
| 2026-04-25 02:12 | 14.49888 | -72.59119 | 33966 ft | 512 kts | 49° |
| 2026-04-25 02:13 | 14.54537 | -72.53554 | 33961 ft | 512 kts | 49° |
| 2026-04-25 02:13 | 14.59117 | -72.47983 | 33966 ft | 513 kts | 50° |
| 2026-04-25 02:14 | 14.63667 | -72.42310 | 33968 ft | 513 kts | 50° |
| 2026-04-25 02:14 | 14.68245 | -72.36661 | 33970 ft | 513 kts | 49° |
| 2026-04-25 02:15 | 14.72860 | -72.31032 | 33970 ft | 513 kts | 49° |
| 2026-04-25 02:15 | 14.77480 | -72.25399 | 33964 ft | 514 kts | 49° |
| 2026-04-25 02:16 | 14.82086 | -72.19747 | 33972 ft | 514 kts | 49° |
| 2026-04-25 02:16 | 14.86698 | -72.14084 | 33970 ft | 515 kts | 49° |
| 2026-04-25 02:17 | 14.91321 | -72.08422 | 33972 ft | 515 kts | 49° |
| 2026-04-25 02:17 | 14.95916 | -72.02791 | 33976 ft | 516 kts | 49° |
| 2026-04-25 02:18 | 15.00532 | -71.97109 | 33978 ft | 516 kts | 49° |
| 2026-04-25 02:18 | 15.05153 | -71.91415 | 33979 ft | 517 kts | 49° |
| 2026-04-25 02:19 | 15.09784 | -71.85721 | 33979 ft | 517 kts | 49° |
| 2026-04-25 02:19 | 15.14414 | -71.80022 | 33981 ft | 517 kts | 49° |
| 2026-04-25 02:20 | 15.19042 | -71.74313 | 33981 ft | 518 kts | 49° |
| 2026-04-25 02:20 | 15.23675 | -71.68605 | 33986 ft | 518 kts | 49° |
| 2026-04-25 02:21 | 15.28314 | -71.62886 | 33985 ft | 518 kts | 49° |
| 2026-04-25 02:21 | 15.32940 | -71.57161 | 33990 ft | 519 kts | 49° |
| 2026-04-25 02:22 | 15.37571 | -71.51425 | 33990 ft | 519 kts | 49° |
| 2026-04-25 02:22 | 15.42210 | -71.45691 | 33991 ft | 519 kts | 49° |
| 2026-04-25 02:23 | 15.46846 | -71.39953 | 33989 ft | 519 kts | 49° |
| 2026-04-25 02:23 | 15.51482 | -71.34207 | 33995 ft | 520 kts | 49° |
| 2026-04-25 02:24 | 15.56106 | -71.28507 | 33997 ft | 520 kts | 49° |
| 2026-04-25 02:24 | 15.60843 | -71.22837 | 33998 ft | 520 kts | 48° |
| 2026-04-25 02:25 | 15.65601 | -71.17177 | 33994 ft | 521 kts | 48° |
| 2026-04-25 02:25 | 15.70347 | -71.11494 | 33995 ft | 521 kts | 48° |
| 2026-04-25 02:26 | 15.75084 | -71.05797 | 33997 ft | 521 kts | 49° |
| 2026-04-25 02:26 | 15.79767 | -71.00043 | 34001 ft | 522 kts | 49° |
| 2026-04-25 02:27 | 15.84414 | -70.94250 | 33999 ft | 522 kts | 49° |
| 2026-04-25 02:27 | 15.89077 | -70.88466 | 34002 ft | 522 kts | 49° |
| 2026-04-25 02:28 | 15.93762 | -70.82688 | 34002 ft | 523 kts | 49° |
| 2026-04-25 02:28 | 15.98449 | -70.76916 | 33999 ft | 523 kts | 49° |
| 2026-04-25 02:29 | 16.02670 | -70.70763 | 34002 ft | 523 kts | 57° |
| 2026-04-25 02:29 | 16.06640 | -70.64418 | 34005 ft | 524 kts | 57° |
| 2026-04-25 02:30 | 16.10622 | -70.58078 | 34005 ft | 524 kts | 57° |
| 2026-04-25 02:30 | 16.14602 | -70.51733 | 34004 ft | 524 kts | 57° |
| 2026-04-25 02:31 | 16.18576 | -70.45384 | 34008 ft | 524 kts | 57° |
| 2026-04-25 02:31 | 16.22540 | -70.39030 | 34008 ft | 524 kts | 57° |
| 2026-04-25 02:32 | 16.26486 | -70.32713 | 34007 ft | 524 kts | 57° |
| 2026-04-25 02:32 | 16.30460 | -70.26361 | 34004 ft | 524 kts | 57° |
| 2026-04-25 02:33 | 16.34428 | -70.19994 | 34006 ft | 524 kts | 57° |
| 2026-04-25 02:33 | 16.38394 | -70.13625 | 34015 ft | 524 kts | 57° |
| 2026-04-25 02:34 | 16.42349 | -70.07251 | 34009 ft | 524 kts | 57° |
| 2026-04-25 02:34 | 16.46313 | -70.00875 | 34007 ft | 524 kts | 57° |
| 2026-04-25 02:35 | 16.50286 | -69.94505 | 34011 ft | 524 kts | 57° |
| 2026-04-25 02:35 | 16.54255 | -69.88129 | 34010 ft | 524 kts | 57° |
| 2026-04-25 02:36 | 16.58214 | -69.81744 | 34010 ft | 525 kts | 57° |
| 2026-04-25 02:36 | 16.62161 | -69.75344 | 34005 ft | 525 kts | 57° |
| 2026-04-25 02:37 | 16.66118 | -69.68938 | 33999 ft | 525 kts | 57° |
| 2026-04-25 02:37 | 16.70059 | -69.62583 | 34001 ft | 526 kts | 57° |
| 2026-04-25 02:38 | 16.74026 | -69.56176 | 34004 ft | 526 kts | 57° |
| 2026-04-25 02:38 | 16.77992 | -69.49763 | 34010 ft | 526 kts | 57° |
| 2026-04-25 02:39 | 16.81952 | -69.43354 | 34012 ft | 525 kts | 57° |
| 2026-04-25 02:39 | 16.85909 | -69.36940 | 34013 ft | 525 kts | 57° |
| 2026-04-25 02:40 | 16.89854 | -69.30517 | 34010 ft | 526 kts | 57° |
| 2026-04-25 02:40 | 16.93805 | -69.24092 | 34010 ft | 526 kts | 58° |
| 2026-04-25 02:41 | 16.97641 | -69.17590 | 34011 ft | 526 kts | 59° |
| 2026-04-25 02:41 | 17.01383 | -69.11036 | 34013 ft | 525 kts | 59° |
| 2026-04-25 02:42 | 17.05136 | -69.04490 | 34015 ft | 525 kts | 59° |
| 2026-04-25 02:42 | 17.08918 | -68.97966 | 34014 ft | 524 kts | 59° |
| 2026-04-25 02:43 | 17.12741 | -68.91474 | 34016 ft | 525 kts | 58° |
| 2026-04-25 02:43 | 17.16641 | -68.85021 | 34017 ft | 525 kts | 58° |
| 2026-04-25 02:44 | 17.20549 | -68.78567 | 34014 ft | 525 kts | 58° |
| 2026-04-25 02:44 | 17.24426 | -68.72084 | 34013 ft | 526 kts | 58° |
| 2026-04-25 02:45 | 17.28253 | -68.65560 | 34014 ft | 526 kts | 59° |
| 2026-04-25 02:45 | 17.32046 | -68.59080 | 34010 ft | 526 kts | 58° |
| 2026-04-25 02:46 | 17.35881 | -68.52562 | 34013 ft | 526 kts | 58° |
| 2026-04-25 02:46 | 17.39713 | -68.46045 | 34013 ft | 526 kts | 58° |
| 2026-04-25 02:47 | 17.43542 | -68.39521 | 34018 ft | 526 kts | 58° |
| 2026-04-25 02:47 | 17.47368 | -68.32998 | 34019 ft | 526 kts | 58° |
| 2026-04-25 02:48 | 17.51194 | -68.26471 | 34013 ft | 526 kts | 58° |
| 2026-04-25 02:48 | 17.55018 | -68.19943 | 34013 ft | 526 kts | 59° |
| 2026-04-25 02:49 | 17.58844 | -68.13411 | 34012 ft | 526 kts | 59° |
| 2026-04-25 02:49 | 17.62235 | -68.06646 | 34017 ft | 525 kts | 68° |
| 2026-04-25 02:50 | 17.65082 | -67.99599 | 34019 ft | 525 kts | 68° |
| 2026-04-25 02:50 | 17.66501 | -67.96074 | 33804 ft | 526 kts | 68° |
| 2026-04-25 02:50 | 17.67918 | -67.92542 | 33338 ft | 525 kts | 68° |
| 2026-04-25 02:50 | 17.69331 | -67.89009 | 32890 ft | 526 kts | 68° |
| 2026-04-25 02:51 | 17.70741 | -67.85470 | 32442 ft | 526 kts | 68° |
| 2026-04-25 02:51 | 17.72151 | -67.81925 | 32006 ft | 527 kts | 68° |
| 2026-04-25 02:51 | 17.73565 | -67.78375 | 31569 ft | 528 kts | 68° |
| 2026-04-25 02:51 | 17.74982 | -67.74820 | 31149 ft | 529 kts | 68° |
| 2026-04-25 02:52 | 17.76401 | -67.71261 | 30735 ft | 529 kts | 68° |
| 2026-04-25 02:52 | 17.77826 | -67.67697 | 30321 ft | 530 kts | 68° |
| 2026-04-25 02:52 | 17.79254 | -67.64130 | 29886 ft | 531 kts | 68° |
| 2026-04-25 02:52 | 17.80681 | -67.60556 | 29404 ft | 530 kts | 68° |
| 2026-04-25 02:53 | 17.82100 | -67.57000 | 28932 ft | 527 kts | 68° |
| 2026-04-25 02:53 | 17.83506 | -67.53465 | 28466 ft | 522 kts | 68° |
| 2026-04-25 02:53 | 17.84896 | -67.49965 | 28007 ft | 518 kts | 68° |
| 2026-04-25 02:53 | 17.86276 | -67.46489 | 27564 ft | 513 kts | 68° |
| 2026-04-25 02:54 | 17.87640 | -67.43048 | 27118 ft | 508 kts | 68° |
| 2026-04-25 02:54 | 17.88990 | -67.39639 | 26682 ft | 504 kts | 68° |
| 2026-04-25 02:54 | 17.90328 | -67.36258 | 26255 ft | 499 kts | 68° |
| 2026-04-25 02:54 | 17.91653 | -67.32911 | 25827 ft | 491 kts | 68° |
| 2026-04-25 02:55 | 17.92510 | -67.30748 | 25549 ft | 478 kts | 68° |
| 2026-04-25 02:55 | 17.93770 | -67.27578 | 25101 ft | 466 kts | 68° |
| 2026-04-25 02:55 | 17.95408 | -67.23453 | 24513 ft | 459 kts | 68° |
| 2026-04-25 02:55 | 17.96631 | -67.20371 | 24074 ft | 455 kts | 68° |
| 2026-04-25 02:56 | 17.97842 | -67.17312 | 23642 ft | 452 kts | 68° |
| 2026-04-25 02:56 | 17.99043 | -67.14278 | 23132 ft | 448 kts | 68° |
| 2026-04-25 02:56 | 17.99850 | -67.12240 | 22785 ft | 446 kts | 68° |
| 2026-04-25 02:56 | 18.01033 | -67.09247 | 22276 ft | 442 kts | 68° |
| 2026-04-25 02:57 | 18.02206 | -67.06270 | 21778 ft | 439 kts | 68° |
| 2026-04-25 02:57 | 18.03367 | -67.03313 | 21287 ft | 436 kts | 68° |
| 2026-04-25 02:57 | 18.04519 | -67.00377 | 20803 ft | 433 kts | 68° |
| 2026-04-25 02:57 | 18.05662 | -66.97463 | 20329 ft | 430 kts | 68° |
| 2026-04-25 02:58 | 18.06797 | -66.94572 | 19871 ft | 426 kts | 68° |
| 2026-04-25 02:58 | 18.07923 | -66.91706 | 19406 ft | 423 kts | 68° |
| 2026-04-25 02:58 | 18.09040 | -66.88861 | 18950 ft | 419 kts | 68° |
| 2026-04-25 02:58 | 18.10150 | -66.86043 | 18491 ft | 415 kts | 68° |
| 2026-04-25 02:59 | 18.11252 | -66.83252 | 18009 ft | 412 kts | 68° |
| 2026-04-25 02:59 | 18.12328 | -66.80521 | 17509 ft | 408 kts | 68° |
| 2026-04-25 02:59 | 18.13420 | -66.77742 | 16998 ft | 404 kts | 68° |
| 2026-04-25 02:59 | 18.14468 | -66.75067 | 16499 ft | 395 kts | 68° |
| 2026-04-25 03:00 | 18.15497 | -66.72437 | 16021 ft | 384 kts | 68° |
| 2026-04-25 03:00 | 18.16496 | -66.69887 | 15539 ft | 370 kts | 68° |
| 2026-04-25 03:00 | 18.17459 | -66.67430 | 15059 ft | 358 kts | 68° |
| 2026-04-25 03:00 | 18.18392 | -66.65050 | 14603 ft | 347 kts | 69° |
| 2026-04-25 03:01 | 18.19298 | -66.62735 | 14147 ft | 338 kts | 69° |
| 2026-04-25 03:01 | 18.20179 | -66.60481 | 13678 ft | 330 kts | 69° |
| 2026-04-25 03:01 | 18.21040 | -66.58274 | 13169 ft | 323 kts | 69° |
| 2026-04-25 03:01 | 18.21883 | -66.56115 | 12670 ft | 316 kts | 69° |
| 2026-04-25 03:02 | 18.22712 | -66.54000 | 12174 ft | 309 kts | 69° |
| 2026-04-25 03:02 | 18.23525 | -66.51926 | 11735 ft | 305 kts | 69° |
| 2026-04-25 03:02 | 18.24394 | -66.49899 | 11301 ft | 304 kts | 60° |
| 2026-04-25 03:02 | 18.25553 | -66.48046 | 10875 ft | 303 kts | 56° |
| 2026-04-25 03:03 | 18.26724 | -66.46214 | 10450 ft | 301 kts | 57° |
| 2026-04-25 03:03 | 18.27885 | -66.44388 | 10030 ft | 300 kts | 57° |
| 2026-04-25 03:03 | 18.29038 | -66.42567 | 9591 ft | 298 kts | 57° |
| 2026-04-25 03:03 | 18.30185 | -66.40756 | 9144 ft | 298 kts | 57° |
| 2026-04-25 03:04 | 18.31353 | -66.38956 | 8691 ft | 297 kts | 52° |
| 2026-04-25 03:04 | 18.32725 | -66.37340 | 8251 ft | 295 kts | 47° |
| 2026-04-25 03:04 | 18.34129 | -66.35804 | 7810 ft | 287 kts | 46° |
| 2026-04-25 03:05 | 18.36858 | -66.32865 | 6950 ft | 274 kts | 46° |
| 2026-04-25 03:05 | 18.38181 | -66.31448 | 6529 ft | 269 kts | 46° |
| 2026-04-25 03:05 | 18.39484 | -66.30059 | 6099 ft | 264 kts | 46° |
| 2026-04-25 03:05 | 18.40765 | -66.28697 | 5645 ft | 260 kts | 46° |
| 2026-04-25 03:06 | 18.42025 | -66.27356 | 5201 ft | 255 kts | 48° |
| 2026-04-25 03:06 | 18.42997 | -66.25838 | 4770 ft | 248 kts | 69° |
| 2026-04-25 03:06 | 18.43388 | -66.24104 | 4326 ft | 242 kts | 89° |
| 2026-04-25 03:06 | 18.43392 | -66.22354 | 3900 ft | 236 kts | 91° |
| 2026-04-25 03:07 | 18.43389 | -66.20652 | 3540 ft | 229 kts | 91° |
| 2026-04-25 03:07 | 18.43386 | -66.19001 | 3203 ft | 221 kts | 91° |
| 2026-04-25 03:07 | 18.43384 | -66.17413 | 2925 ft | 214 kts | 91° |
| 2026-04-25 03:07 | 18.43382 | -66.15850 | 2645 ft | 211 kts | 91° |
| 2026-04-25 03:08 | 18.43380 | -66.14345 | 2374 ft | 200 kts | 91° |
| 2026-04-25 03:08 | 18.43378 | -66.12918 | 2116 ft | 190 kts | 91° |
| 2026-04-25 03:08 | 18.43376 | -66.11571 | 1897 ft | 179 kts | 91° |
| 2026-04-25 03:08 | 18.43374 | -66.10282 | 1654 ft | 172 kts | 91° |
| 2026-04-25 03:09 | 18.43372 | -66.09082 | 1436 ft | 157 kts | 91° |
| 2026-04-25 03:09 | 18.43370 | -66.07974 | 1249 ft | 144 kts | 92° |
| 2026-04-25 03:09 | 18.43368 | -66.06935 | 1062 ft | 140 kts | 91° |
| 2026-04-25 03:09 | 18.43365 | -66.05910 | 880 ft | 140 kts | 91° |
| 2026-04-25 03:10 | 18.43363 | -66.04888 | 694 ft | 140 kts | 91° |
| 2026-04-25 03:10 | 18.43361 | -66.03863 | 514 ft | 140 kts | 91° |
| 2026-04-25 03:10 | 18.43359 | -66.02838 | 326 ft | 140 kts | 90° |
| 2026-04-25 03:10 | 18.43358 | -66.01811 | 145 ft | 141 kts | 90° |
| 2026-04-25 03:11 | 18.43356 | -66.00794 | 17 ft | 129 kts | 91° |
| 2026-04-25 03:11 | 18.43353 | -66.00160 | 17 ft | 54 kts | 90° |
| 2026-04-25 03:11 | 18.43353 | -65.99784 | 17 ft | 49 kts | 90° |
| 2026-04-25 03:11 | 18.43371 | -65.99585 | 17 ft | 20 kts | 59° |
| 2026-04-25 03:12 | 18.43450 | -65.99558 | 17 ft | 13 kts | 329° |
| 2026-04-25 03:12 | 18.43463 | -65.99650 | 17 ft | 14 kts | 271° |
| 2026-04-25 03:12 | 18.43463 | -65.99754 | 17 ft | 9 kts | 270° |
| 2026-04-25 03:12 | 18.43464 | -65.99830 | 17 ft | 12 kts | 270° |
| 2026-04-25 03:13 | 18.43464 | -65.99925 | 17 ft | 15 kts | 270° |
| 2026-04-25 03:13 | 18.43464 | -66.00042 | 17 ft | 17 kts | 270° |
| 2026-04-25 03:13 | 18.43465 | -66.00178 | 17 ft | 17 kts | 270° |
| 2026-04-25 03:13 | 18.43475 | -66.00257 | 19 ft | 10 kts | 300° |
| 2026-04-25 03:14 | 18.43523 | -66.00311 | 17 ft | 6 kts | 333° |
| 2026-04-25 03:14 | 18.43575 | -66.00323 | 17 ft | 7 kts | 343° |
| 2026-04-25 03:14 | 18.43601 | -66.00331 | 17 ft | 2 kts | 343° |
| 2026-04-25 03:14 | 18.43611 | -66.00334 | 17 ft | 0 kts | 343° |